createdAt,value
2023-01-13T00:01:43.086Z,101623.67
2023-01-13T00:04:12.060Z,101621.88
2023-01-13T00:06:40.955Z,101622.94
2023-01-13T00:09:09.720Z,101627.16
2023-01-13T00:11:38.464Z,101627.52
2023-01-13T00:14:07.231Z,101629.61
2023-01-13T00:16:36.009Z,101630.50
2023-01-13T00:19:04.807Z,101627.16
2023-01-13T00:21:33.659Z,101627.07
2023-01-13T00:24:02.461Z,101628.57
2023-01-13T00:26:33.860Z,101629.70
2023-01-13T00:29:04.147Z,101629.01
2023-01-13T00:31:32.994Z,101632.39
2023-01-13T00:34:02.246Z,101626.61
2023-01-13T00:36:32.209Z,101619.16
2023-01-13T00:39:00.773Z,101615.97
2023-01-13T00:41:49.329Z,101611.00
2023-01-13T00:44:18.204Z,101603.94
2023-01-13T00:46:46.854Z,101602.42
2023-01-13T00:49:15.524Z,101604.07
2023-01-13T00:51:44.415Z,101600.46
2023-01-13T00:54:13.134Z,101604.37
2023-01-13T00:56:41.660Z,101600.11
2023-01-13T00:59:14.410Z,101599.98
2023-01-13T01:01:43.311Z,101601.95
2023-01-13T01:04:12.346Z,101605.47
2023-01-13T01:06:41.205Z,101607.53
2023-01-13T01:09:14.728Z,101603.34
2023-01-13T01:11:44.045Z,101605.23
2023-01-13T01:14:14.428Z,101603.94
2023-01-13T01:16:43.036Z,101603.59
2023-01-13T01:19:11.718Z,101603.05
2023-01-13T01:21:40.551Z,101603.52
2023-01-13T01:24:10.085Z,101610.44
2023-01-13T01:26:38.758Z,101608.77
2023-01-13T01:29:07.621Z,101609.19
2023-01-13T01:31:36.319Z,101609.85
2023-01-13T01:34:05.163Z,101609.59
2023-01-13T01:36:35.233Z,101610.30
2023-01-13T01:39:04.971Z,101609.53
2023-01-13T01:41:36.205Z,101607.38
2023-01-13T01:44:58.723Z,101601.59
2023-01-13T01:47:29.884Z,101600.24
2023-01-13T01:49:58.924Z,101605.34
2023-01-13T01:52:36.839Z,101607.66
2023-01-13T01:55:16.982Z,101604.61
2023-01-13T01:58:13.460Z,101598.20
2023-01-13T02:00:42.488Z,101596.94
2023-01-13T02:03:11.468Z,101600.10
2023-01-13T02:05:40.146Z,101599.96
2023-01-13T02:08:11.914Z,101602.42
2023-01-13T02:10:43.288Z,101606.98
2023-01-13T02:13:14.168Z,101605.42
2023-01-13T02:16:13.403Z,101601.64
2023-01-13T02:19:43.211Z,101602.83
2023-01-13T02:22:27.959Z,101599.17
2023-01-13T02:25:55.833Z,101603.14
2023-01-13T02:29:32.777Z,101604.04
2023-01-13T02:32:22.395Z,101601.63
2023-01-13T02:35:15.336Z,101596.52
2023-01-13T02:37:44.463Z,101594.69
2023-01-13T02:40:25.394Z,101590.75
2023-01-13T02:43:26.362Z,101585.59
2023-01-13T02:46:24.590Z,101580.10
2023-01-13T02:48:57.671Z,101582.64
2023-01-13T02:51:30.279Z,101581.40
2023-01-13T02:54:05.032Z,101582.95
2023-01-13T02:56:39.666Z,101582.38
2023-01-13T02:59:10.704Z,101581.85
2023-01-13T03:01:40.079Z,101581.05
2023-01-13T03:04:14.792Z,101580.39
2023-01-13T03:06:57.043Z,101576.80
2023-01-13T03:09:43.313Z,101577.14
2023-01-13T03:12:23.984Z,101578.20
2023-01-13T03:15:09.802Z,101577.45
2023-01-13T03:18:21.693Z,101575.88
2023-01-13T03:21:06.853Z,101576.43
2023-01-13T03:23:54.114Z,101576.67
2023-01-13T03:26:53.114Z,101578.90
2023-01-13T03:30:07.759Z,101581.83
2023-01-13T03:32:42.515Z,101582.77
2023-01-13T03:35:30.971Z,101578.69
2023-01-13T03:38:20.821Z,101579.40
2023-01-13T03:40:56.095Z,101578.60
2023-01-13T03:43:50.584Z,101583.56
2023-01-13T03:46:28.337Z,101581.54
2023-01-13T03:48:59.971Z,101582.42
2023-01-13T03:51:34.930Z,101583.46
2023-01-13T03:54:10.715Z,101584.05
2023-01-13T03:56:45.967Z,101587.48
2023-01-13T03:59:24.382Z,101585.73
2023-01-13T04:02:27.770Z,101583.31
2023-01-13T04:05:03.261Z,101583.85
2023-01-13T04:07:42.997Z,101584.09
2023-01-13T04:10:14.298Z,101590.48
2023-01-13T04:13:01.135Z,101590.73
2023-01-13T04:15:35.523Z,101588.95
2023-01-13T04:18:27.400Z,101586.45
2023-01-13T04:20:59.769Z,101586.50
2023-01-13T04:23:29.401Z,101586.87
2023-01-13T04:25:59.025Z,101584.48
2023-01-13T04:28:29.999Z,101585.75
2023-01-13T04:30:58.822Z,101581.17
2023-01-13T04:33:27.534Z,101577.05
2023-01-13T04:35:56.463Z,101583.27
2023-01-13T04:38:25.205Z,101585.98
2023-01-13T04:40:53.993Z,101590.34
2023-01-13T04:43:22.702Z,101594.27
2023-01-13T04:45:51.713Z,101595.69
2023-01-13T04:48:20.680Z,101604.94
2023-01-13T04:50:49.518Z,101603.32
2023-01-13T04:53:18.349Z,101605.30
2023-01-13T04:55:48.276Z,101603.26
2023-01-13T04:58:17.240Z,101608.44
2023-01-13T05:00:46.014Z,101606.20
2023-01-13T05:03:15.584Z,101606.36
2023-01-13T05:05:45.235Z,101608.09
2023-01-13T05:08:14.023Z,101611.06
2023-01-13T05:10:44.512Z,101611.72
2023-01-13T05:13:33.438Z,101607.06
2023-01-13T05:16:43.647Z,101615.52
2023-01-13T05:19:16.621Z,101615.70
2023-01-13T05:22:04.432Z,101615.46
2023-01-13T05:24:52.050Z,101615.14
2023-01-13T05:27:20.953Z,101617.80
2023-01-13T05:29:49.924Z,101629.68
2023-01-13T05:32:19.575Z,101628.12
2023-01-13T05:34:48.963Z,101625.23
2023-01-13T05:37:20.851Z,101630.31
2023-01-13T05:40:08.518Z,101629.11
2023-01-13T05:42:56.826Z,101632.30
2023-01-13T05:45:26.450Z,101628.14
2023-01-13T05:47:55.631Z,101633.09
2023-01-13T05:50:25.478Z,101627.46
2023-01-13T05:52:54.527Z,101622.54
2023-01-13T05:55:23.430Z,101630.70
2023-01-13T05:57:52.690Z,101636.41
2023-01-13T06:00:22.215Z,101639.17
2023-01-13T06:02:51.381Z,101638.25
2023-01-13T06:05:21.143Z,101641.21
2023-01-13T06:07:51.493Z,101641.48
2023-01-13T06:10:20.808Z,101646.58
2023-01-13T06:12:50.173Z,101647.63
2023-01-13T06:15:19.893Z,101646.84
2023-01-13T06:17:49.020Z,101649.06
2023-01-13T06:20:19.460Z,101649.42
2023-01-13T06:22:52.254Z,101644.88
2023-01-13T06:26:02.585Z,101643.37
2023-01-13T06:28:35.820Z,101642.15
2023-01-13T06:34:41.396Z,101642.17
2023-01-13T06:37:15.283Z,101643.59
2023-01-13T06:39:44.279Z,101647.13
2023-01-13T06:42:32.047Z,101652.50
2023-01-13T06:45:01.228Z,101655.95
2023-01-13T06:47:30.370Z,101653.08
2023-01-13T06:50:00.236Z,101658.95
2023-01-13T06:52:30.913Z,101656.59
2023-01-13T06:54:59.877Z,101660.82
2023-01-13T06:57:29.062Z,101659.77
2023-01-13T06:59:59.205Z,101658.77
2023-01-13T07:02:28.575Z,101655.35
2023-01-13T07:04:57.861Z,101657.92
2023-01-13T07:07:27.699Z,101656.81
2023-01-13T07:09:56.713Z,101650.01
2023-01-13T07:12:26.152Z,101652.04
2023-01-13T07:15:14.994Z,101652.89
2023-01-13T07:17:43.856Z,101649.94
2023-01-13T07:20:12.983Z,101652.30
2023-01-13T07:22:41.846Z,101650.05
2023-01-13T07:25:11.647Z,101651.95
2023-01-13T07:27:40.624Z,101649.34
2023-01-13T07:30:11.757Z,101652.49
2023-01-13T07:32:40.605Z,101656.10
2023-01-13T07:35:09.799Z,101649.95
2023-01-13T07:37:39.598Z,101653.33
2023-01-13T07:40:11.181Z,101650.50
2023-01-13T07:42:59.174Z,101646.90
2023-01-13T07:45:27.848Z,101645.13
2023-01-13T07:47:56.499Z,101643.35
2023-01-13T07:50:25.344Z,101648.49
2023-01-13T07:52:58.630Z,101648.45
2023-01-13T07:55:27.605Z,101650.13
2023-01-13T07:57:56.518Z,101651.94
2023-01-13T08:00:25.292Z,101657.27
2023-01-13T08:02:54.117Z,101651.92
2023-01-13T08:05:22.845Z,101654.20
2023-01-13T08:11:11.456Z,101647.07
2023-01-13T08:13:40.368Z,101654.46
2023-01-13T08:16:14.036Z,101656.53
2023-01-13T08:18:43.619Z,101660.34
2023-01-13T08:21:15.180Z,101665.27
2023-01-13T08:23:45.454Z,101663.14
2023-01-13T08:26:18.016Z,101657.32
2023-01-13T08:28:46.920Z,101651.09
2023-01-13T08:31:17.179Z,101654.61
2023-01-13T08:33:47.317Z,101656.64
2023-01-13T08:36:16.400Z,101652.08
2023-01-13T08:38:45.116Z,101654.23
2023-01-13T08:41:40.433Z,101647.82
2023-01-13T08:44:09.532Z,101645.52
2023-01-13T08:46:38.539Z,101643.30
2023-01-13T08:49:07.527Z,101637.16
2023-01-13T08:51:36.771Z,101630.34
2023-01-13T08:54:05.702Z,101625.30
2023-01-13T09:00:07.835Z,101626.10
2023-01-13T09:02:38.648Z,101628.96
2023-01-13T09:05:08.735Z,101627.34
2023-01-13T09:07:39.093Z,101624.48
2023-01-13T09:10:10.059Z,101626.68
2023-01-13T09:16:12.988Z,101628.77
2023-01-13T09:18:41.818Z,101629.64
2023-01-13T09:21:11.773Z,101627.38
2023-01-13T09:23:40.413Z,101617.40
2023-01-13T09:26:10.371Z,101614.36
2023-01-13T09:28:39.172Z,101612.08
2023-01-13T09:31:08.358Z,101612.09
2023-01-13T09:33:55.877Z,101607.49
2023-01-13T09:36:24.863Z,101603.23
2023-01-13T09:38:53.684Z,101600.06
2023-01-13T09:41:48.523Z,101600.33
2023-01-13T09:44:28.200Z,101606.92
2023-01-13T09:47:04.512Z,101610.67
2023-01-13T09:49:42.390Z,101608.73
2023-01-13T09:52:15.866Z,101610.63
2023-01-13T09:55:14.746Z,101608.17
2023-01-13T09:57:45.614Z,101600.34
2023-01-13T10:00:29.333Z,101599.27
2023-01-13T10:03:28.961Z,101595.40
2023-01-13T10:06:22.689Z,101590.86
2023-01-13T10:08:51.820Z,101590.14
2023-01-13T10:11:45.593Z,101585.15
2023-01-13T10:14:41.723Z,101584.08
2023-01-13T10:17:49.386Z,101579.77
2023-01-13T10:20:33.557Z,101577.08
2023-01-13T10:23:27.096Z,101575.68
2023-01-13T10:26:24.354Z,101576.59
2023-01-13T10:28:58.577Z,101574.09
2023-01-13T10:31:27.629Z,101568.84
2023-01-13T10:34:02.064Z,101567.25
2023-01-13T10:36:31.292Z,101562.50
2023-01-13T10:39:17.085Z,101559.07
2023-01-13T10:41:45.928Z,101555.44
2023-01-13T10:44:20.108Z,101555.50
2023-01-13T10:46:56.621Z,101555.84
2023-01-13T10:49:39.379Z,101555.02
2023-01-13T10:52:55.139Z,101556.80
2023-01-13T10:55:38.895Z,101560.95
2023-01-13T10:58:17.687Z,101555.52
2023-01-13T11:00:47.712Z,101551.36
2023-01-13T11:03:19.975Z,101553.30
2023-01-13T11:05:58.345Z,101554.19
2023-01-13T11:08:42.390Z,101556.67
2023-01-13T11:11:47.770Z,101557.98
2023-01-13T11:14:40.112Z,101560.09
2023-01-13T11:17:46.632Z,101556.24
2023-01-13T11:20:31.919Z,101548.60
2023-01-13T11:23:16.316Z,101546.22
2023-01-13T11:25:53.191Z,101541.25
2023-01-13T11:29:00.406Z,101538.86
2023-01-13T11:31:40.331Z,101535.27
2023-01-13T11:34:26.118Z,101531.19
2023-01-13T11:36:58.583Z,101528.34
2023-01-13T11:39:54.066Z,101531.09
2023-01-13T11:42:32.440Z,101532.70
2023-01-13T11:45:32.197Z,101529.58
2023-01-13T11:48:03.250Z,101524.90
2023-01-13T11:51:14.104Z,101521.02
2023-01-13T11:54:33.435Z,101522.13
2023-01-13T11:57:56.290Z,101524.42
2023-01-13T12:00:31.458Z,101521.13
2023-01-13T12:03:25.068Z,101523.27
2023-01-13T12:06:27.958Z,101521.92
2023-01-13T12:09:25.027Z,101520.31
2023-01-13T12:12:37.167Z,101521.94
2023-01-13T12:15:21.991Z,101518.06
2023-01-13T12:17:50.824Z,101517.58
2023-01-13T12:20:42.797Z,101513.33
2023-01-13T12:23:59.498Z,101513.00
2023-01-13T12:26:35.003Z,101516.42
2023-01-13T12:29:11.604Z,101522.34
2023-01-13T12:31:43.222Z,101519.56
2023-01-13T12:34:47.759Z,101516.90
2023-01-13T12:38:15.245Z,101515.80
2023-01-13T12:41:06.757Z,101521.64
2023-01-13T12:43:57.014Z,101525.73
2023-01-13T12:46:25.777Z,101521.18
2023-01-13T12:48:56.851Z,101521.73
2023-01-13T12:51:36.959Z,101520.95
2023-01-13T12:54:30.895Z,101521.99
2023-01-13T12:57:00.768Z,101520.64
2023-01-13T12:59:29.623Z,101522.43
2023-01-13T13:02:16.101Z,101521.25
2023-01-13T13:04:52.029Z,101519.54
2023-01-13T13:07:41.389Z,101525.43
2023-01-13T13:10:28.686Z,101523.19
2023-01-13T13:13:18.988Z,101523.10
2023-01-13T13:15:52.213Z,101519.04
2023-01-13T13:18:28.580Z,101524.88
2023-01-13T13:21:07.427Z,101527.90
2023-01-13T13:23:57.894Z,101523.73
2023-01-13T13:26:46.007Z,101525.80
2023-01-13T13:29:59.871Z,101529.76
2023-01-13T13:33:02.633Z,101532.40
2023-01-13T13:36:36.129Z,101532.30
2023-01-13T13:39:47.689Z,101532.33
2023-01-13T13:42:47.994Z,101536.36
2023-01-13T13:45:40.116Z,101534.47
2023-01-13T13:48:27.387Z,101537.48
2023-01-13T13:51:02.685Z,101535.61
2023-01-13T13:53:41.993Z,101535.25
2023-01-13T13:56:32.735Z,101535.14
2023-01-13T13:59:01.689Z,101540.14
2023-01-13T14:02:04.267Z,101539.08
2023-01-13T14:04:38.168Z,101535.80
2023-01-13T14:07:22.370Z,101533.20
2023-01-13T14:09:54.904Z,101534.99
2023-01-13T14:12:27.291Z,101544.23
2023-01-13T14:14:57.772Z,101551.25
2023-01-13T14:17:29.947Z,101551.30
2023-01-13T14:20:05.977Z,101550.98
2023-01-13T14:26:01.523Z,101558.88
2023-01-13T14:28:38.637Z,101559.66
2023-01-13T14:31:10.199Z,101559.15
2023-01-13T14:33:48.991Z,101563.67
2023-01-13T14:36:41.881Z,101566.80
2023-01-13T14:39:15.093Z,101564.42
2023-01-13T14:41:43.883Z,101567.14
2023-01-13T14:44:36.893Z,101570.02
2023-01-13T14:47:20.611Z,101572.06
2023-01-13T14:50:04.846Z,101580.42
2023-01-13T14:52:52.784Z,101574.39
2023-01-13T14:55:38.849Z,101576.31
2023-01-13T14:58:23.399Z,101574.80
2023-01-13T21:53:56.131Z,101541.70
2023-01-13T21:56:25.486Z,101541.98
2023-01-13T21:58:56.301Z,101536.19
2023-01-13T22:01:25.250Z,101532.66
2023-01-13T22:04:13.075Z,101534.69
2023-01-13T22:06:41.867Z,101530.98
2023-01-13T22:09:10.748Z,101529.90
2023-01-13T22:11:39.815Z,101523.73
2023-01-13T22:14:10.268Z,101525.40
2023-01-13T22:16:49.181Z,101522.77
2023-01-13T22:19:18.927Z,101521.83
2023-01-13T22:21:47.715Z,101520.95
2023-01-13T22:24:16.543Z,101521.98
2023-01-13T22:26:45.306Z,101522.20
2023-01-13T22:29:14.064Z,101519.85
2023-01-13T22:31:43.185Z,101520.55
2023-01-13T22:37:50.466Z,101520.23
2023-01-13T22:40:19.605Z,101519.41
2023-01-13T22:42:48.367Z,101518.20
2023-01-13T22:45:17.071Z,101514.23
2023-01-13T22:47:45.791Z,101513.63
2023-01-13T22:50:14.741Z,101508.45
2023-01-13T22:52:43.388Z,101505.45
2023-01-13T22:55:12.104Z,101504.15
2023-01-13T22:57:47.657Z,101503.99
2023-01-13T23:00:19.363Z,101508.32
2023-01-13T23:02:48.355Z,101507.76
2023-01-13T23:05:17.797Z,101509.06
2023-01-13T23:07:46.609Z,101507.15
2023-01-13T23:10:15.319Z,101504.70
2023-01-13T23:12:44.117Z,101506.38
2023-01-13T23:15:13.005Z,101503.20
2023-01-13T23:17:41.697Z,101503.40
2023-01-13T23:20:11.633Z,101505.06
2023-01-13T23:22:41.007Z,101503.64
2023-01-13T23:25:11.098Z,101507.56
2023-01-13T23:27:39.924Z,101503.63
2023-01-13T23:30:11.398Z,101500.61
2023-01-13T23:32:40.389Z,101500.53
2023-01-13T23:35:11.286Z,101505.16
2023-01-13T23:37:40.070Z,101504.27
2023-01-13T23:40:10.266Z,101503.80
2023-01-13T23:42:39.183Z,101501.85
2023-01-13T23:45:10.011Z,101503.52
2023-01-13T23:47:39.362Z,101500.63
2023-01-13T23:50:09.488Z,101501.16
2023-01-13T23:52:40.444Z,101502.13
2023-01-13T23:55:09.978Z,101501.67
2023-01-13T23:57:40.906Z,101499.09
